createdAt,value
2022-12-11T00:00:23.681Z,99692.91
2022-12-11T00:02:51.239Z,99688.97
2022-12-11T00:05:18.848Z,99689.66
2022-12-11T00:07:47.702Z,99687.81
2022-12-11T00:10:15.181Z,99692.19
2022-12-11T00:12:42.677Z,99688.50
2022-12-11T00:15:11.313Z,99686.63
2022-12-11T00:17:39.011Z,99684.19
2022-12-11T00:20:07.911Z,99691.66
2022-12-11T00:22:36.591Z,99693.81
2022-12-11T00:25:06.477Z,99698.91
2022-12-11T00:27:34.087Z,99692.13
2022-12-11T00:30:01.615Z,99707.75
2022-12-11T00:32:30.811Z,99694.16
2022-12-11T00:35:01.171Z,99694.00
2022-12-11T00:37:29.321Z,99689.66
2022-12-11T00:39:57.285Z,99694.19
2022-12-11T00:42:25.978Z,99696.78
2022-12-11T00:44:54.819Z,99689.06
2022-12-11T00:47:22.299Z,99693.78
2022-12-11T00:49:50.259Z,99697.25
2022-12-11T00:52:18.339Z,99701.75
2022-12-11T00:54:45.910Z,99699.38
2022-12-11T00:57:13.384Z,99695.31
2022-12-11T00:59:42.226Z,99701.19
2022-12-11T01:02:09.812Z,99691.50
2022-12-11T01:04:38.023Z,99697.09
2022-12-11T01:07:05.839Z,99701.59
2022-12-11T01:09:50.603Z,99694.78
2022-12-11T01:12:18.090Z,99691.91
2022-12-11T01:14:46.871Z,99698.28
2022-12-11T01:17:14.356Z,99699.25
2022-12-11T01:19:41.950Z,99700.88
2022-12-11T01:22:09.452Z,99704.19
2022-12-11T01:24:38.018Z,99701.69
2022-12-11T01:27:05.875Z,99704.97
2022-12-11T01:29:33.454Z,99703.09
2022-12-11T01:32:02.299Z,99700.09
2022-12-11T01:34:30.233Z,99711.63
2022-12-11T01:36:57.782Z,99706.22
2022-12-11T01:39:25.671Z,99707.66
2022-12-11T01:41:58.468Z,99707.28
2022-12-11T01:45:17.679Z,99709.97
2022-12-11T01:47:46.615Z,99713.81
2022-12-11T01:50:14.761Z,99712.28
2022-12-11T01:52:43.179Z,99699.22
2022-12-11T01:55:11.245Z,99701.59
2022-12-11T01:57:41.748Z,99708.34
2022-12-11T02:00:10.929Z,99703.75
2022-12-11T02:02:38.576Z,99707.47
2022-12-11T02:05:08.879Z,99710.81
2022-12-11T02:07:40.057Z,99700.47
2022-12-11T02:10:09.444Z,99704.03
2022-12-11T02:12:42.672Z,99703.75
2022-12-11T02:15:17.455Z,99699.97
2022-12-11T02:17:51.554Z,99706.06
2022-12-11T02:20:24.743Z,99694.47
2022-12-11T02:23:14.932Z,99699.13
2022-12-11T02:25:53.219Z,99697.81
2022-12-11T02:28:29.138Z,99698.72
2022-12-11T02:31:00.754Z,99695.53
2022-12-11T02:33:37.291Z,99696.44
2022-12-11T02:36:07.058Z,99691.19
2022-12-11T02:38:37.939Z,99689.19
2022-12-11T02:41:08.224Z,99690.66
2022-12-11T02:43:39.025Z,99684.72
2022-12-11T02:46:08.787Z,99695.47
2022-12-11T02:48:37.671Z,99693.09
2022-12-11T02:51:07.705Z,99694.50
2022-12-11T02:53:38.930Z,99690.31
2022-12-11T02:56:11.337Z,99694.19
2022-12-11T02:58:47.498Z,99688.25
2022-12-11T03:01:15.140Z,99695.00
2022-12-11T03:03:43.141Z,99691.66
2022-12-11T03:06:13.391Z,99703.69
2022-12-11T03:08:40.868Z,99699.06
2022-12-11T03:11:11.439Z,99696.28
2022-12-11T03:13:42.465Z,99690.69
2022-12-11T03:16:16.322Z,99692.25
2022-12-11T03:18:53.413Z,99694.19
2022-12-11T03:21:28.473Z,99692.03
2022-12-11T03:24:02.835Z,99696.47
2022-12-11T03:26:38.295Z,99704.50
2022-12-11T03:29:14.849Z,99701.25
2022-12-11T03:31:45.010Z,99703.06
2022-12-11T03:34:17.463Z,99700.72
2022-12-11T03:36:48.444Z,99703.16
2022-12-11T03:39:20.040Z,99708.53
2022-12-11T03:41:50.346Z,99704.06
2022-12-11T03:44:21.143Z,99713.22
2022-12-11T03:46:51.327Z,99702.00
2022-12-11T03:49:22.608Z,99704.84
2022-12-11T03:51:53.125Z,99708.59
2022-12-11T03:54:21.582Z,99712.25
2022-12-11T03:56:51.339Z,99709.69
2022-12-11T03:59:20.486Z,99712.31
2022-12-11T04:01:48.053Z,99703.31
2022-12-11T04:04:16.007Z,99701.09
2022-12-11T04:06:43.537Z,99708.63
2022-12-11T04:09:10.999Z,99695.28
2022-12-11T04:11:39.476Z,99704.38
2022-12-11T04:14:25.875Z,99713.78
2022-12-11T04:16:55.168Z,99705.72
2022-12-11T04:19:40.836Z,99711.38
2022-12-11T04:22:27.610Z,99715.88
2022-12-11T04:24:55.096Z,99712.84
2022-12-11T04:27:36.573Z,99711.28
2022-12-11T04:30:06.059Z,99710.91
2022-12-11T04:32:36.041Z,99715.09
2022-12-11T04:35:03.667Z,99717.31
2022-12-11T04:37:31.469Z,99704.84
2022-12-11T04:39:59.053Z,99711.38
2022-12-11T04:42:26.558Z,99705.00
2022-12-11T04:44:54.018Z,99699.84
2022-12-11T04:47:21.494Z,99700.84
2022-12-11T04:49:50.575Z,99702.97
2022-12-11T04:52:18.607Z,99705.69
2022-12-11T04:54:46.083Z,99698.09
2022-12-11T04:57:13.559Z,99703.47
2022-12-11T04:59:41.283Z,99704.03
2022-12-11T05:02:08.780Z,99698.88
2022-12-11T05:04:36.590Z,99686.75
2022-12-11T05:07:05.519Z,99691.13
2022-12-11T05:09:33.024Z,99691.63
2022-12-11T05:12:00.505Z,99685.34
2022-12-11T05:14:31.954Z,99683.91
2022-12-11T05:16:59.783Z,99678.84
2022-12-11T05:19:27.775Z,99686.13
2022-12-11T05:21:55.147Z,99676.38
2022-12-11T05:24:23.984Z,99675.00
2022-12-11T05:26:51.458Z,99682.13
2022-12-11T05:29:18.943Z,99669.56
2022-12-11T05:31:46.470Z,99678.63
2022-12-11T05:34:15.134Z,99676.78
2022-12-11T05:36:42.679Z,99665.34
2022-12-11T05:39:12.333Z,99671.38
2022-12-11T05:41:41.146Z,99669.00
2022-12-11T05:44:08.845Z,99670.06
2022-12-11T05:46:36.624Z,99672.38
2022-12-11T05:49:04.193Z,99672.09
2022-12-11T05:51:34.171Z,99669.78
2022-12-11T05:54:01.970Z,99667.50
2022-12-11T05:56:31.075Z,99665.84
2022-12-11T05:59:01.636Z,99666.13
2022-12-11T06:01:31.235Z,99669.41
2022-12-11T06:03:59.520Z,99666.34
2022-12-11T06:06:27.813Z,99669.84
2022-12-11T06:08:58.340Z,99673.78
2022-12-11T06:11:28.171Z,99667.66
2022-12-11T06:13:55.780Z,99668.47
2022-12-11T06:16:25.484Z,99676.41
2022-12-11T06:18:57.113Z,99669.38
2022-12-11T06:21:51.713Z,99675.59
2022-12-11T06:24:19.224Z,99671.25
2022-12-11T06:26:46.689Z,99672.25
2022-12-11T06:29:14.318Z,99677.13
2022-12-11T06:31:43.171Z,99674.50
2022-12-11T06:34:13.538Z,99675.53
2022-12-11T06:36:41.468Z,99672.44
2022-12-11T06:39:09.290Z,99678.91
2022-12-11T06:41:36.649Z,99676.88
2022-12-11T06:44:04.244Z,99674.84
2022-12-11T06:46:31.714Z,99678.25
2022-12-11T06:49:00.539Z,99681.72
2022-12-11T06:51:28.040Z,99678.97
2022-12-11T06:53:57.615Z,99686.97
2022-12-11T06:56:26.062Z,99691.94
2022-12-11T06:58:53.928Z,99697.63
2022-12-11T07:01:23.586Z,99692.00
2022-12-11T07:03:53.710Z,99706.34
2022-12-11T07:06:23.063Z,99700.41
2022-12-11T07:08:50.672Z,99699.34
2022-12-11T07:11:19.786Z,99707.53
2022-12-11T07:13:47.808Z,99707.19
2022-12-11T07:16:17.566Z,99708.28
2022-12-11T07:18:48.907Z,99700.94
2022-12-11T07:21:16.389Z,99711.59
2022-12-11T07:23:45.333Z,99708.44
2022-12-11T07:26:14.362Z,99707.75
2022-12-11T07:28:42.628Z,99709.56
2022-12-11T07:31:12.174Z,99708.72
2022-12-11T07:33:40.055Z,99710.31
2022-12-11T07:36:08.991Z,99712.34
2022-12-11T07:38:37.139Z,99711.47
2022-12-11T07:41:07.764Z,99717.56
2022-12-11T07:43:36.631Z,99722.69
2022-12-11T07:46:05.334Z,99718.25
2022-12-11T07:48:33.027Z,99710.53
2022-12-11T07:51:09.819Z,99721.72
2022-12-11T07:53:37.320Z,99721.44
2022-12-11T07:56:07.002Z,99720.75
2022-12-11T07:58:34.865Z,99722.28
2022-12-11T08:01:02.762Z,99723.97
2022-12-11T08:03:30.374Z,99728.59
2022-12-11T08:05:57.941Z,99734.63
2022-12-11T08:08:26.007Z,99724.47
2022-12-11T08:10:53.578Z,99724.91
2022-12-11T08:13:22.391Z,99727.94
2022-12-11T08:15:49.927Z,99727.66
2022-12-11T08:18:17.496Z,99722.81
2022-12-11T08:20:45.051Z,99727.97
2022-12-11T08:23:12.564Z,99729.28
2022-12-11T08:25:41.162Z,99723.28
2022-12-11T08:28:08.841Z,99725.44
2022-12-11T08:30:39.966Z,99728.84
2022-12-11T08:33:07.837Z,99728.22
2022-12-11T08:35:40.288Z,99718.13
2022-12-11T08:38:08.940Z,99720.19
2022-12-11T08:40:36.476Z,99723.41
2022-12-11T08:43:03.922Z,99705.16
2022-12-11T08:45:31.548Z,99713.31
2022-12-11T08:48:00.757Z,99705.97
2022-12-11T08:50:28.359Z,99711.38
2022-12-11T08:52:55.875Z,99713.59
2022-12-11T08:55:23.381Z,99715.91
2022-12-11T08:57:50.980Z,99710.47
2022-12-11T09:00:18.872Z,99715.66
2022-12-11T09:02:46.272Z,99717.59
2022-12-11T09:05:15.139Z,99722.31
2022-12-11T09:07:42.609Z,99719.50
2022-12-11T09:10:10.967Z,99722.94
2022-12-11T09:12:38.714Z,99722.53
2022-12-11T09:15:07.107Z,99725.31
2022-12-11T09:17:35.225Z,99727.78
2022-12-11T09:20:03.031Z,99733.22
2022-12-11T09:22:33.057Z,99726.28
2022-12-11T09:25:00.573Z,99718.69
2022-12-11T09:27:29.155Z,99717.59
2022-12-11T09:29:56.671Z,99710.88
2022-12-11T09:32:24.193Z,99718.44
2022-12-11T09:34:51.784Z,99716.34
2022-12-11T09:37:19.246Z,99711.44
2022-12-11T09:39:48.360Z,99714.66
2022-12-11T09:42:22.226Z,99715.34
2022-12-11T09:44:54.674Z,99714.22
2022-12-11T09:47:27.375Z,99714.63
2022-12-11T09:50:04.019Z,99713.09
2022-12-11T09:52:38.416Z,99712.84
2022-12-11T09:55:15.857Z,99703.34
2022-12-11T09:57:51.595Z,99706.34
2022-12-11T10:00:25.718Z,99703.28
2022-12-11T10:03:40.992Z,99713.06
2022-12-11T10:06:15.231Z,99709.09
2022-12-11T10:08:49.351Z,99702.09
2022-12-11T10:11:40.011Z,99708.28
2022-12-11T10:14:14.742Z,99699.91
2022-12-11T10:16:45.946Z,99700.81
2022-12-11T10:19:18.190Z,99691.75
2022-12-11T10:21:47.127Z,99683.53
2022-12-11T10:24:42.226Z,99679.66
2022-12-11T10:27:21.131Z,99672.97
2022-12-11T10:29:52.621Z,99669.41
2022-12-11T10:32:25.318Z,99674.69
2022-12-11T10:34:58.420Z,99667.75
2022-12-11T10:37:25.952Z,99674.72
2022-12-11T10:39:53.468Z,99676.50
2022-12-11T10:42:24.160Z,99682.00
2022-12-11T10:44:59.731Z,99677.63
2022-12-11T10:47:27.500Z,99677.84
2022-12-11T10:49:58.336Z,99670.75
2022-12-11T10:52:28.358Z,99668.47
2022-12-11T10:55:00.131Z,99672.44
2022-12-11T10:57:32.106Z,99663.25
2022-12-11T11:00:00.701Z,99657.94
2022-12-11T11:02:31.991Z,99658.91
2022-12-11T11:05:02.178Z,99644.28
2022-12-11T11:07:31.420Z,99642.66
2022-12-11T11:10:15.076Z,99647.94
2022-12-11T11:12:45.566Z,99649.38
2022-12-11T11:15:16.255Z,99636.97
2022-12-11T11:17:54.520Z,99635.84
2022-12-11T11:20:25.381Z,99633.09
2022-12-11T11:22:59.951Z,99635.06
2022-12-11T11:25:29.557Z,99632.03
2022-12-11T11:28:00.821Z,99632.88
2022-12-11T11:30:31.012Z,99638.47
2022-12-11T11:33:02.154Z,99630.69
2022-12-11T11:35:31.561Z,99627.28
2022-12-11T11:38:05.245Z,99628.16
2022-12-11T11:40:38.553Z,99624.50
2022-12-11T11:43:17.274Z,99628.50
2022-12-11T11:45:50.684Z,99621.41
2022-12-11T11:48:30.272Z,99616.47
2022-12-11T11:50:58.771Z,99615.97
2022-12-11T11:53:32.900Z,99615.66
2022-12-11T11:56:08.385Z,99612.94
2022-12-11T11:58:45.014Z,99605.25
2022-12-11T12:01:16.229Z,99596.53
2022-12-11T12:03:44.322Z,99602.88
2022-12-11T12:06:17.770Z,99607.06
2022-12-11T12:08:51.968Z,99596.59
2022-12-11T12:11:30.756Z,99594.09
2022-12-11T12:14:28.790Z,99597.72
2022-12-11T12:17:07.279Z,99595.28
2022-12-11T12:19:44.716Z,99586.88
2022-12-11T12:22:25.058Z,99595.31
2022-12-11T12:25:02.387Z,99590.09
2022-12-11T12:30:24.305Z,99600.41
2022-12-11T12:33:11.741Z,99598.06
2022-12-11T12:35:46.261Z,99595.28
2022-12-11T12:38:19.299Z,99590.09
2022-12-11T12:40:56.581Z,99587.59
2022-12-11T12:43:47.212Z,99588.59
2022-12-11T12:46:27.127Z,99590.06
2022-12-11T12:48:57.944Z,99593.59
2022-12-11T12:51:27.162Z,99584.81
2022-12-11T12:53:58.972Z,99583.41
2022-12-11T12:56:28.345Z,99572.81
2022-12-11T12:58:55.991Z,99571.47
2022-12-11T13:01:27.812Z,99564.50
2022-12-11T13:03:58.343Z,99569.97
2022-12-11T13:06:37.017Z,99573.19
2022-12-11T13:09:15.681Z,99572.69
2022-12-11T13:11:43.236Z,99565.41
2022-12-11T13:14:27.876Z,99569.19
2022-12-11T13:17:09.266Z,99568.06
2022-12-11T13:19:42.344Z,99567.44
2022-12-11T13:22:23.269Z,99563.19
2022-12-11T13:25:01.485Z,99563.13
2022-12-11T13:27:39.072Z,99563.78
2022-12-11T13:30:21.629Z,99562.66
2022-12-11T13:33:02.619Z,99565.63
2022-12-11T13:35:31.252Z,99572.94
2022-12-11T13:38:04.733Z,99566.66
2022-12-11T13:40:38.871Z,99569.75
2022-12-11T13:43:11.156Z,99569.00
2022-12-11T13:45:47.094Z,99572.34
2022-12-11T13:48:23.669Z,99581.66
2022-12-11T13:50:53.004Z,99572.44
2022-12-11T13:53:22.185Z,99581.25
2022-12-11T13:55:57.813Z,99587.38
2022-12-11T13:58:26.187Z,99586.72
2022-12-11T14:01:01.055Z,99584.25
2022-12-11T14:03:31.399Z,99583.69
2022-12-11T14:05:59.293Z,99582.00
2022-12-11T14:08:31.737Z,99570.59
2022-12-11T14:10:59.286Z,99576.94
2022-12-11T14:13:32.262Z,99577.41
2022-12-11T14:16:00.037Z,99580.53
2022-12-11T14:18:32.651Z,99581.56
2022-12-11T14:21:02.021Z,99589.34
2022-12-11T14:23:31.737Z,99577.09
2022-12-11T14:26:00.959Z,99592.13
2022-12-11T14:28:30.557Z,99586.31
2022-12-11T14:31:00.504Z,99578.47
2022-12-11T14:33:33.335Z,99589.09
2022-12-11T14:36:02.697Z,99591.03
2022-12-11T14:38:34.396Z,99590.19
2022-12-11T14:41:07.186Z,99592.56
2022-12-11T14:43:39.796Z,99581.13
2022-12-11T14:46:11.827Z,99590.94
2022-12-11T14:48:47.393Z,99592.22
2022-12-11T14:51:18.562Z,99594.75
2022-12-11T14:53:48.846Z,99597.47
2022-12-11T14:56:20.077Z,99601.63
2022-12-11T14:58:56.436Z,99597.31
2022-12-11T15:01:26.932Z,99600.53
2022-12-11T15:04:06.332Z,99604.63
2022-12-11T15:06:36.202Z,99605.44
2022-12-11T15:09:21.225Z,99600.50
2022-12-11T15:11:51.099Z,99596.38
2022-12-11T15:14:21.748Z,99606.13
2022-12-11T15:16:50.517Z,99598.13
2022-12-11T15:19:24.034Z,99606.47
2022-12-11T15:21:52.299Z,99602.84
2022-12-11T15:24:26.946Z,99602.97
2022-12-11T15:26:59.210Z,99593.38
2022-12-11T15:29:33.016Z,99604.28
2022-12-11T15:32:02.957Z,99607.44
2022-12-11T15:34:36.379Z,99608.75
2022-12-11T15:37:03.864Z,99598.41
2022-12-11T15:39:31.477Z,99593.84
2022-12-11T15:41:58.957Z,99593.00
2022-12-11T15:44:26.473Z,99595.19
2022-12-11T15:46:53.972Z,99591.16
2022-12-11T15:49:24.107Z,99595.09
2022-12-11T15:51:54.440Z,99596.75
2022-12-11T15:54:21.971Z,99595.19
2022-12-11T15:56:49.429Z,99597.81
2022-12-11T15:59:17.137Z,99600.22
2022-12-11T16:01:45.073Z,99600.34
2022-12-11T16:04:12.483Z,99609.16
2022-12-11T16:06:45.119Z,99606.06
2022-12-11T16:09:13.940Z,99609.63
2022-12-11T16:11:41.410Z,99613.16
2022-12-11T16:14:08.868Z,99604.56
2022-12-11T16:16:36.342Z,99606.97
2022-12-11T16:19:04.014Z,99611.59
2022-12-11T16:21:31.652Z,99611.72
2022-12-11T16:23:59.137Z,99614.59
2022-12-11T16:26:28.109Z,99613.16
2022-12-11T16:28:55.563Z,99613.81
2022-12-11T16:31:23.451Z,99609.72
2022-12-11T16:33:50.871Z,99611.44
2022-12-11T16:36:20.820Z,99615.78
2022-12-11T16:38:53.495Z,99618.78
2022-12-11T16:41:22.681Z,99608.38
2022-12-11T16:43:51.828Z,99609.34
2022-12-11T16:46:23.070Z,99606.03
2022-12-11T16:48:51.510Z,99607.09
2022-12-11T16:51:19.084Z,99608.28
2022-12-11T16:53:47.053Z,99598.81
2022-12-11T16:56:14.379Z,99604.38
2022-12-11T16:58:41.858Z,99599.69
2022-12-11T17:01:13.643Z,99606.84
2022-12-11T17:03:42.239Z,99612.09
2022-12-11T17:06:10.608Z,99607.47
2022-12-11T17:08:38.382Z,99609.22
2022-12-11T17:11:07.202Z,99609.22
2022-12-11T17:13:36.301Z,99615.34
2022-12-11T17:16:05.702Z,99612.63
2022-12-11T17:18:34.810Z,99610.25
2022-12-11T17:21:07.674Z,99612.19
2022-12-11T17:23:35.647Z,99619.88
2022-12-11T17:26:03.469Z,99611.75
2022-12-11T17:28:31.363Z,99617.88
2022-12-11T17:30:59.504Z,99605.50
2022-12-11T17:33:26.981Z,99613.34
2022-12-11T17:35:55.780Z,99615.34
2022-12-11T17:38:23.241Z,99611.72
2022-12-11T17:40:50.796Z,99617.09
2022-12-11T17:43:18.271Z,99618.06
2022-12-11T17:45:48.000Z,99610.25
2022-12-11T17:48:16.635Z,99617.34
2022-12-11T17:50:46.526Z,99619.16
2022-12-11T17:53:16.691Z,99625.34
2022-12-11T17:55:45.252Z,99627.00
2022-12-11T17:58:14.231Z,99622.06
2022-12-11T18:00:43.152Z,99616.53
2022-12-11T18:03:11.476Z,99621.81
2022-12-11T18:05:42.700Z,99619.22
2022-12-11T18:08:13.067Z,99619.06
2022-12-11T18:10:42.031Z,99609.84
2022-12-11T18:13:10.447Z,99614.94
2022-12-11T18:15:38.324Z,99611.59
2022-12-11T18:18:06.209Z,99611.28
2022-12-11T18:20:34.179Z,99609.16
2022-12-11T18:23:01.884Z,99617.47
2022-12-11T18:25:29.390Z,99617.47
2022-12-11T18:27:59.489Z,99620.41
2022-12-11T18:30:27.917Z,99618.94
2022-12-11T18:32:55.422Z,99623.22
2022-12-11T18:35:22.922Z,99629.56
2022-12-11T18:37:50.414Z,99624.06
2022-12-11T18:40:18.054Z,99618.50
2022-12-11T18:42:45.544Z,99614.28
2022-12-11T18:45:14.678Z,99620.81
2022-12-11T18:47:42.320Z,99611.88
2022-12-11T18:50:10.009Z,99613.91
2022-12-11T18:52:37.527Z,99611.13
2022-12-11T18:55:05.491Z,99606.75
2022-12-11T18:57:33.238Z,99603.13
2022-12-11T19:00:07.051Z,99603.28
2022-12-11T19:02:36.242Z,99598.94
2022-12-11T19:05:04.483Z,99596.16
2022-12-11T19:07:32.192Z,99596.91
2022-12-11T19:09:59.673Z,99602.50
2022-12-11T19:12:27.157Z,99586.84
2022-12-11T19:14:54.662Z,99596.19
2022-12-11T19:17:22.155Z,99596.59
2022-12-11T19:19:50.947Z,99601.72
2022-12-11T19:22:18.486Z,99601.50
2022-12-11T19:24:45.960Z,99605.66
2022-12-11T19:27:13.966Z,99607.00
2022-12-11T19:29:41.808Z,99601.22
2022-12-11T19:32:09.591Z,99607.44
2022-12-11T19:34:38.388Z,99595.38
2022-12-11T19:37:07.287Z,99608.72
2022-12-11T19:39:35.230Z,99603.28
2022-12-11T19:42:02.582Z,99600.22
2022-12-11T19:44:30.042Z,99602.63
2022-12-11T19:46:57.607Z,99600.75
2022-12-11T19:49:25.155Z,99610.44
2022-12-11T19:51:52.622Z,99606.06
2022-12-11T19:54:21.530Z,99604.19
2022-12-11T19:56:49.044Z,99605.88
2022-12-11T19:59:17.707Z,99599.94
2022-12-11T20:01:46.759Z,99603.31
2022-12-11T20:04:17.028Z,99596.81
2022-12-11T20:06:46.486Z,99594.28
2022-12-11T20:09:14.345Z,99601.22
2022-12-11T20:11:43.821Z,99599.13
2022-12-11T20:14:19.382Z,99598.25
2022-12-11T20:17:09.974Z,99596.97
2022-12-11T20:19:34.280Z,99602.84
2022-12-11T20:22:01.745Z,99606.03
2022-12-11T20:24:29.567Z,99600.28
2022-12-11T20:26:58.362Z,99597.72
2022-12-11T20:29:26.004Z,99587.50
2022-12-11T20:31:53.563Z,99608.19
2022-12-11T20:34:21.188Z,99594.97
2022-12-11T20:36:49.365Z,99599.84
2022-12-11T20:39:16.825Z,99609.94
2022-12-11T20:41:44.372Z,99603.75
2022-12-11T20:44:13.166Z,99607.28
2022-12-11T20:46:40.757Z,99595.69
2022-12-11T20:49:12.689Z,99603.41
2022-12-11T20:51:41.030Z,99599.84
2022-12-11T20:54:09.059Z,99602.44
2022-12-11T20:56:36.867Z,99609.53
2022-12-11T20:59:04.735Z,99614.25
2022-12-11T21:01:34.760Z,99609.84
2022-12-11T21:04:02.495Z,99607.31
2022-12-11T21:06:31.936Z,99600.50
2022-12-11T21:09:01.192Z,99595.69
2022-12-11T21:11:28.884Z,99595.50
2022-12-11T21:13:56.379Z,99587.63
2022-12-11T21:16:24.556Z,99595.66
2022-12-11T21:18:53.426Z,99590.53
2022-12-11T21:21:21.057Z,99586.16
2022-12-11T21:23:48.671Z,99587.81
2022-12-11T21:26:16.352Z,99600.22
2022-12-11T21:28:43.924Z,99591.47
2022-12-11T21:31:14.668Z,99598.22
2022-12-11T21:33:42.431Z,99593.91
2022-12-11T21:36:13.593Z,99583.53
2022-12-11T21:38:43.522Z,99587.81
2022-12-11T21:41:14.198Z,99585.47
2022-12-11T21:44:00.418Z,99587.81
2022-12-11T22:01:04.905Z,99576.75
2022-12-11T22:03:32.680Z,99575.88
2022-12-11T22:06:00.142Z,99579.53
2022-12-11T22:08:27.708Z,99575.13
2022-12-11T22:10:56.560Z,99580.59
2022-12-11T22:13:24.198Z,99575.97
2022-12-11T22:15:52.185Z,99576.50
2022-12-11T22:18:21.119Z,99573.97
2022-12-11T22:20:49.011Z,99582.00
2022-12-11T22:23:16.334Z,99584.03
2022-12-11T22:25:43.817Z,99566.19
2022-12-11T22:28:11.347Z,99572.31
2022-12-11T22:30:39.976Z,99568.72
2022-12-11T22:33:07.716Z,99568.97
2022-12-11T22:35:36.811Z,99572.38
2022-12-11T22:38:04.817Z,99572.72
2022-12-11T22:40:32.340Z,99571.94
2022-12-11T22:43:00.232Z,99563.56
2022-12-11T22:45:27.595Z,99566.88
2022-12-11T22:47:55.060Z,99563.97
2022-12-11T22:50:22.588Z,99565.84
2022-12-11T22:52:51.430Z,99573.47
2022-12-11T22:55:19.054Z,99583.25
2022-12-11T22:57:46.510Z,99575.28
2022-12-11T23:00:14.939Z,99568.59
2022-12-11T23:02:42.861Z,99572.06
2022-12-11T23:05:12.281Z,99567.06
2022-12-11T23:07:40.027Z,99578.38
2022-12-11T23:10:10.583Z,99580.94
2022-12-11T23:12:38.145Z,99576.75
2022-12-11T23:15:06.511Z,99574.34
2022-12-11T23:17:33.977Z,99581.59
2022-12-11T23:20:03.646Z,99589.38
2022-12-11T23:22:31.536Z,99596.28
2022-12-11T23:24:58.868Z,99597.06
2022-12-11T23:27:27.680Z,99600.66
2022-12-11T23:29:55.328Z,99596.78
2022-12-11T23:32:23.444Z,99592.78
2022-12-11T23:34:51.116Z,99592.81
2022-12-11T23:37:18.600Z,99596.69
2022-12-11T23:39:46.064Z,99581.00
2022-12-11T23:42:14.110Z,99587.25
2022-12-11T23:44:43.110Z,99585.34
2022-12-11T23:47:10.599Z,99585.41
2022-12-11T23:49:38.079Z,99591.53
2022-12-11T23:52:05.829Z,99582.16
2022-12-11T23:54:33.290Z,99578.00
2022-12-11T23:57:00.916Z,99585.84
2022-12-11T23:59:28.395Z,99581.16
